Time;durP1;ratioP1;P1;durP2;ratioP2;P2;SDS_P1;SDS_P2;PMS_P1;PMS_P2;Temp;Humidity;BMP_temperature;BMP_pressure;BME280_temperature;BME280_humidity;BME280_pressure;Samples;Min_cycle;Max_cycle;Signal;HPM_P1;HPM_P2
2022/01/15 00:01:31;;;;;;;4.60;3.58;;;22.00;33.50;;;;;;5092407;28;20397;-63
2022/01/15 00:03:57;;;;;;;5.10;3.70;;;22.00;33.60;;;;;;5074474;28;20443;-63
2022/01/15 00:06:22;;;;;;;4.88;3.20;;;22.00;33.80;;;;;;5092284;28;20390;-63
2022/01/15 00:08:48;;;;;;;4.72;3.58;;;22.00;33.70;;;;;;5092615;28;20417;-64
2022/01/15 00:11:13;;;;;;;5.27;3.70;;;22.00;33.70;;;;;;5092467;28;20421;-64
2022/01/15 00:13:42;;;;;;;4.00;3.45;;;21.90;33.40;;;;;;5092626;28;20473;-63
2022/01/15 00:16:24;;;;;;;4.75;3.30;;;21.90;33.40;;;;;;5089929;28;20394;-67
2022/01/15 00:19:05;;;;;;;3.83;3.15;;;21.80;33.40;;;;;;5090604;28;20382;-63
2022/01/15 00:21:31;;;;;;;4.50;3.00;;;21.90;33.60;;;;;;5071488;28;20752;-63
2022/01/15 00:23:56;;;;;;;3.63;3.17;;;21.90;33.70;;;;;;5097441;28;20403;-64
2022/01/15 00:26:22;;;;;;;4.32;3.08;;;21.80;33.70;;;;;;5091641;28;20393;-64
2022/01/15 00:28:48;;;;;;;4.13;3.17;;;21.80;33.50;;;;;;5091798;28;20860;-63
2022/01/15 00:31:13;;;;;;;4.18;3.38;;;21.80;33.40;;;;;;5091912;28;20440;-64
2022/01/15 00:33:39;;;;;;;3.93;2.90;;;21.80;33.30;;;;;;5091888;28;20879;-64
2022/01/15 00:36:05;;;;;;;4.13;3.10;;;21.80;33.50;;;;;;5072903;28;20389;-64
2022/01/15 00:38:31;;;;;;;4.18;3.28;;;21.80;34.20;;;;;;5091199;28;20389;-64
2022/01/15 00:40:57;;;;;;;4.27;3.17;;;21.70;33.50;;;;;;5072239;28;20413;-64
2022/01/15 00:43:23;;;;;;;3.95;3.13;;;21.70;33.40;;;;;;5091253;28;20382;-69
2022/01/15 00:45:49;;;;;;;3.80;3.30;;;21.70;33.20;;;;;;5091671;28;20867;-65
2022/01/15 00:48:15;;;;;;;3.55;2.92;;;21.60;33.10;;;;;;5073015;28;20443;-64
2022/01/15 00:50:41;;;;;;;3.67;3.17;;;21.70;33.40;;;;;;5092048;28;20771;-64
2022/01/15 00:53:07;;;;;;;4.03;3.10;;;21.60;33.40;;;;;;5092605;28;20382;-74
2022/01/15 00:55:33;;;;;;;4.30;3.20;;;21.60;33.50;;;;;;5092323;28;20484;-69
2022/01/15 00:57:58;;;;;;;4.20;3.30;;;21.60;33.40;;;;;;5073960;28;20402;-66
2022/01/15 01:00:26;;;;;;;4.10;3.43;;;21.60;33.20;;;;;;5091838;28;20416;-65
2022/01/15 01:02:52;;;;;;;3.60;2.95;;;21.60;33.20;;;;;;5074284;28;20410;-68
2022/01/15 01:05:18;;;;;;;3.72;2.90;;;21.50;33.30;;;;;;5092497;28;20397;-67
2022/01/15 01:07:43;;;;;;;3.85;3.10;;;21.60;33.30;;;;;;5074569;28;20394;-65
2022/01/15 01:23:22;;;;;;;3.50;3.00;;;21.50;33.30;;;;;;5092286;28;20808;-64
2022/01/15 01:25:53;;;;;;;4.00;3.20;;;21.40;33.30;;;;;;5092241;28;20398;-64
2022/01/15 01:28:44;;;;;;;3.85;3.08;;;21.40;33.30;;;;;;5092623;28;20389;-65
2022/01/15 01:31:23;;;;;;;3.58;2.88;;;21.40;33.10;;;;;;5091941;28;21096;-63
2022/01/15 01:33:53;;;;;;;4.75;2.90;;;21.40;33.00;;;;;;5091472;28;20390;-65
2022/01/15 01:38:54;;;;;;;3.60;3.00;;;21.40;33.20;;;;;;5092399;28;20476;-66
2022/01/15 01:41:22;;;;;;;3.88;3.22;;;21.30;33.30;;;;;;5074293;28;20414;-64
2022/01/15 01:44:02;;;;;;;3.40;2.65;;;21.30;33.10;;;;;;5092232;28;20875;-63
2022/01/15 01:48:55;;;;;;;3.40;2.83;;;21.20;33.00;;;;;;5092303;28;20487;-64
2022/01/15 01:51:34;;;;;;;3.35;2.70;;;21.30;33.20;;;;;;5073971;28;20393;-64
2022/01/15 01:54:02;;;;;;;3.70;2.70;;;21.30;33.30;;;;;;5092140;28;20374;-67
2022/01/15 01:56:28;;;;;;;3.03;2.70;;;21.20;33.30;;;;;;5091884;28;20382;-64
2022/01/15 01:58:54;;;;;;;3.67;3.00;;;21.20;33.30;;;;;;5091445;28;20390;-64
2022/01/15 02:01:20;;;;;;;4.00;3.10;;;21.20;33.00;;;;;;5091960;28;20390;-64
2022/01/15 02:03:46;;;;;;;3.85;2.90;;;21.20;33.00;;;;;;5073992;28;20747;-66
2022/01/15 02:06:12;;;;;;;3.58;2.88;;;21.20;33.20;;;;;;5073844;28;20398;-65
2022/01/15 02:08:38;;;;;;;3.53;2.90;;;21.20;33.30;;;;;;5073952;28;20825;-64
2022/01/15 02:11:06;;;;;;;3.25;2.47;;;21.20;33.30;;;;;;5073743;28;20397;-65
2022/01/15 02:13:33;;;;;;;3.90;2.80;;;21.10;33.30;;;;;;5091778;28;20770;-64
2022/01/15 02:16:01;;;;;;;4.50;3.10;;;21.10;33.10;;;;;;5073734;28;20744;-64
2022/01/15 02:18:27;;;;;;;3.40;2.80;;;21.10;33.10;;;;;;5091695;28;20378;-65
2022/01/15 02:23:32;;;;;;;4.22;2.78;;;21.10;33.10;;;;;;5091905;28;20417;-67
2022/01/15 02:23:50;;;;;;;3.53;2.70;;;21.10;33.20;;;;;;5091176;28;20375;-65
2022/01/15 02:26:18;;;;;;;3.42;2.90;;;21.10;33.30;;;;;;5091779;28;20382;-64
2022/01/15 02:29:05;;;;;;;4.45;3.10;;;21.10;33.20;;;;;;5091697;28;20374;-67
2022/01/15 02:31:32;;;;;;;3.63;2.92;;;21.00;32.90;;;;;;5091619;28;20390;-65
2022/01/15 02:34:01;;;;;;;4.22;2.83;;;21.00;32.90;;;;;;5091652;28;20378;-67
2022/01/15 02:36:29;;;;;;;3.90;3.10;;;21.00;33.20;;;;;;5091685;28;20483;-64
2022/01/15 02:38:55;;;;;;;3.90;2.85;;;21.10;33.30;;;;;;5073398;28;20967;-64
2022/01/15 02:41:36;;;;;;;3.63;2.90;;;21.00;33.20;;;;;;5091649;28;20390;-64
2022/01/15 02:44:05;;;;;;;4.30;3.33;;;20.90;33.10;;;;;;5092365;28;20383;-64
2022/01/15 02:49:04;;;;;;;3.80;3.07;;;21.00;32.90;;;;;;5095625;28;20819;-64
2022/01/15 02:51:35;;;;;;;3.53;2.90;;;21.00;33.20;;;;;;5095542;28;20382;-64
2022/01/15 02:54:01;;;;;;;3.58;3.00;;;21.00;33.20;;;;;;5095391;28;20389;-65
2022/01/15 02:56:32;;;;;;;4.05;2.90;;;20.90;33.10;;;;;;5095479;28;20386;-69
2022/01/15 02:58:58;;;;;;;3.92;3.08;;;20.90;33.20;;;;;;5095268;28;20406;-70
2022/01/15 03:01:24;;;;;;;3.50;2.87;;;20.90;32.90;;;;;;5077109;28;20825;-63
2022/01/15 03:03:50;;;;;;;3.60;2.90;;;20.90;32.80;;;;;;5095135;28;20439;-67
2022/01/15 03:06:18;;;;;;;3.60;2.90;;;20.90;33.10;;;;;;5095295;28;20936;-64
2022/01/15 03:08:46;;;;;;;4.05;3.20;;;20.90;33.10;;;;;;5095213;28;20732;-64
2022/01/15 03:11:12;;;;;;;3.47;2.78;;;20.90;33.00;;;;;;5076843;28;20417;-64
2022/01/15 03:13:39;;;;;;;3.10;2.60;;;20.80;33.20;;;;;;5095185;28;20397;-63
2022/01/15 03:16:12;;;;;;;3.53;2.97;;;20.90;32.90;;;;;;5095016;28;20470;-63
2022/01/15 03:18:38;;;;;;;3.85;3.00;;;20.80;32.70;;;;;;5095069;28;20752;-64
2022/01/15 03:21:04;;;;;;;3.53;2.70;;;20.80;33.00;;;;;;5076698;28;20410;-64
2022/01/15 03:23:30;;;;;;;3.25;2.70;;;20.80;33.10;;;;;;5076825;28;20393;-67
2022/01/15 03:25:55;;;;;;;3.30;2.80;;;20.80;33.10;;;;;;5094849;28;20398;-64
2022/01/15 03:28:21;;;;;;;4.10;2.80;;;20.80;33.20;;;;;;5076434;28;20421;-64
2022/01/15 03:30:47;;;;;;;3.22;2.67;;;20.80;32.80;;;;;;5075998;28;20386;-73
2022/01/15 03:33:13;;;;;;;3.40;2.90;;;20.80;32.70;;;;;;5094657;28;20386;-64
2022/01/15 03:35:39;;;;;;;4.00;2.60;;;20.80;32.90;;;;;;5094685;28;20389;-65
2022/01/15 03:38:05;;;;;;;3.40;2.50;;;20.80;33.00;;;;;;5094499;28;20394;-69
2022/01/15 03:40:32;;;;;;;3.88;2.72;;;20.80;33.10;;;;;;5094561;28;20420;-65
2022/01/15 03:42:58;;;;;;;3.50;2.50;;;20.80;32.90;;;;;;5076304;28;20478;-65
2022/01/15 03:45:24;;;;;;;3.70;2.70;;;20.90;33.00;;;;;;5094277;28;20859;-64
2022/01/15 03:47:50;;;;;;;3.35;2.80;;;20.90;32.90;;;;;;5094178;28;20497;-64
2022/01/15 03:50:17;;;;;;;3.67;2.77;;;20.90;32.90;;;;;;5076295;28;20391;-66
2022/01/15 03:52:43;;;;;;;3.65;2.83;;;21.00;32.90;;;;;;5076098;28;20389;-65
2022/01/15 03:55:11;;;;;;;3.22;2.75;;;21.00;32.80;;;;;;5093913;28;20386;-64
2022/01/15 03:57:37;;;;;;;3.53;2.60;;;21.00;32.80;;;;;;5093525;28;20472;-64
2022/01/15 04:00:13;;;;;;;3.35;2.80;;;21.00;32.70;;;;;;5094193;28;20417;-65
2022/01/15 04:02:41;;;;;;;3.70;2.80;;;21.10;32.70;;;;;;5076096;28;20386;-67
2022/01/15 04:05:08;;;;;;;3.03;2.57;;;21.10;32.70;;;;;;5094153;28;20402;-64
2022/01/15 04:07:34;;;;;;;3.97;2.60;;;21.10;32.70;;;;;;5094078;28;20404;-64
2022/01/15 04:09:59;;;;;;;3.60;2.72;;;21.10;32.60;;;;;;5075877;28;20884;-64
2022/01/15 04:12:25;;;;;;;2.83;2.45;;;21.10;32.60;;;;;;5094009;28;20454;-64
2022/01/15 04:14:50;;;;;;;2.97;2.53;;;21.10;32.60;;;;;;5093959;28;20480;-64
2022/01/15 04:17:16;;;;;;;3.17;2.60;;;21.10;32.50;;;;;;5075691;28;20397;-65
2022/01/15 04:19:42;;;;;;;3.13;2.53;;;21.20;32.60;;;;;;5093956;28;20733;-65
2022/01/15 04:22:07;;;;;;;4.13;2.50;;;21.20;32.50;;;;;;5093876;28;20729;-70
2022/01/15 04:24:33;;;;;;;3.42;2.42;;;21.20;32.40;;;;;;5093773;28;20882;-65
2022/01/15 04:26:59;;;;;;;3.35;2.60;;;21.20;32.50;;;;;;5093636;28;20386;-69
2022/01/15 04:29:24;;;;;;;2.87;2.57;;;21.20;32.40;;;;;;5093713;28;20378;-68
2022/01/15 04:31:51;;;;;;;3.47;2.50;;;21.20;32.40;;;;;;5092652;28;20390;-64
2022/01/15 04:34:21;;;;;;;3.30;2.35;;;21.20;32.30;;;;;;5093337;28;20397;-64
2022/01/15 04:36:49;;;;;;;3.20;2.60;;;21.10;32.20;;;;;;5093570;28;20390;-64
2022/01/15 04:39:15;;;;;;;3.90;2.70;;;21.20;32.20;;;;;;5075063;28;20759;-64
2022/01/15 04:41:41;;;;;;;3.25;2.72;;;21.10;32.10;;;;;;5093566;28;20389;-63
2022/01/15 04:44:07;;;;;;;3.37;2.60;;;21.00;32.30;;;;;;5075000;28;20764;-64
2022/01/15 04:46:37;;;;;;;3.08;2.60;;;21.00;32.50;;;;;;5092332;28;20406;-66
2022/01/15 04:49:04;;;;;;;3.13;2.67;;;20.90;32.20;;;;;;5092958;28;20378;-64
2022/01/15 04:51:30;;;;;;;3.17;2.50;;;20.90;32.20;;;;;;5093050;28;20421;-65
2022/01/15 04:53:55;;;;;;;3.30;2.50;;;20.90;32.90;;;;;;5093139;28;20418;-64
2022/01/15 04:56:21;;;;;;;3.35;2.60;;;20.90;32.30;;;;;;5092924;28;20394;-65
2022/01/15 04:58:47;;;;;;;3.03;2.43;;;20.80;32.40;;;;;;5074965;28;20387;-64
2022/01/15 05:01:12;;;;;;;3.25;2.38;;;20.80;32.30;;;;;;5092712;28;20474;-64
2022/01/15 05:03:38;;;;;;;3.20;2.60;;;20.80;32.30;;;;;;5092976;28;20759;-64
2022/01/15 05:06:04;;;;;;;2.72;2.40;;;20.80;32.30;;;;;;5092969;28;20386;-64
2022/01/15 05:08:29;;;;;;;3.20;2.70;;;20.80;32.30;;;;;;5092530;28;20401;-66
2022/01/15 05:10:59;;;;;;;2.85;2.55;;;20.80;32.40;;;;;;5092440;28;20401;-65
2022/01/15 05:13:28;;;;;;;3.13;2.50;;;20.70;32.30;;;;;;5092778;28;20382;-65
2022/01/15 05:15:54;;;;;;;3.25;2.45;;;20.70;32.30;;;;;;5092759;28;20394;-64
2022/01/15 05:18:20;;;;;;;3.60;2.80;;;20.70;32.20;;;;;;5092710;28;20424;-64
2022/01/15 05:20:46;;;;;;;3.38;2.85;;;20.70;32.10;;;;;;5074395;28;20452;-63
2022/01/15 05:23:12;;;;;;;3.78;2.90;;;20.70;32.20;;;;;;5074406;28;20452;-64
2022/01/15 05:25:38;;;;;;;3.67;2.95;;;20.70;32.30;;;;;;5092681;28;20397;-64
2022/01/15 05:28:05;;;;;;;3.33;2.75;;;20.70;32.30;;;;;;5092579;28;20382;-65
2022/01/15 05:30:31;;;;;;;3.63;2.80;;;20.60;32.30;;;;;;5074224;28;20382;-64
2022/01/15 05:32:58;;;;;;;3.85;3.13;;;20.60;32.10;;;;;;5092284;28;20378;-64
2022/01/15 05:35:26;;;;;;;3.47;2.88;;;20.60;31.90;;;;;;5074243;28;20398;-67
2022/01/15 05:37:59;;;;;;;3.90;3.00;;;20.60;32.20;;;;;;5092305;28;20477;-65
2022/01/15 05:40:26;;;;;;;3.40;2.80;;;20.60;32.30;;;;;;5092249;28;20528;-64
2022/01/15 05:42:53;;;;;;;3.55;2.97;;;20.60;32.20;;;;;;5092344;28;20427;-65
2022/01/15 05:45:21;;;;;;;4.40;3.13;;;20.60;32.30;;;;;;5073951;28;20390;-64
2022/01/15 05:47:47;;;;;;;3.90;3.00;;;20.50;32.20;;;;;;5092155;28;20480;-64
2022/01/15 05:50:12;;;;;;;3.70;3.10;;;20.50;32.10;;;;;;5074217;28;20481;-65
2022/01/15 05:52:38;;;;;;;3.10;2.80;;;20.50;32.30;;;;;;5092079;28;20478;-67
2022/01/15 05:55:04;;;;;;;3.30;2.83;;;20.60;32.40;;;;;;5092067;28;20394;-64
2022/01/15 05:57:30;;;;;;;3.85;3.30;;;20.50;32.30;;;;;;5091809;28;20438;-65
2022/01/15 05:59:56;;;;;;;3.63;2.90;;;20.50;32.30;;;;;;5091874;28;20976;-66
2022/01/15 06:02:22;;;;;;;3.90;3.00;;;20.40;32.30;;;;;;5091432;28;20469;-69
2022/01/15 06:04:49;;;;;;;3.83;3.00;;;20.40;32.20;;;;;;5090446;28;20394;-64
2022/01/15 06:07:14;;;;;;;3.35;2.95;;;20.40;32.30;;;;;;5091693;28;20389;-63
2022/01/15 06:09:40;;;;;;;3.95;3.20;;;20.40;32.40;;;;;;5092014;28;20386;-64
2022/01/15 06:12:06;;;;;;;3.55;3.00;;;20.40;32.50;;;;;;5091997;28;20472;-64
2022/01/15 06:14:32;;;;;;;4.03;3.10;;;20.40;32.20;;;;;;5091783;28;20401;-64
2022/01/15 06:16:58;;;;;;;3.37;3.07;;;20.40;32.00;;;;;;5091892;28;20486;-63
2022/01/15 06:19:25;;;;;;;3.97;3.30;;;20.30;31.80;;;;;;5075101;28;20428;-63
2022/01/15 06:21:51;;;;;;;3.85;3.30;;;20.40;32.10;;;;;;5095984;28;20417;-64
2022/01/15 06:24:16;;;;;;;3.92;3.10;;;20.40;32.50;;;;;;5077908;28;20875;-65
2022/01/15 06:26:42;;;;;;;3.50;3.05;;;20.40;32.50;;;;;;5096126;28;20394;-64
2022/01/15 06:29:08;;;;;;;3.93;3.10;;;20.40;32.40;;;;;;5095858;28;20381;-64
2022/01/15 06:31:34;;;;;;;3.58;2.90;;;20.30;32.20;;;;;;5095827;28;20948;-64
2022/01/15 06:34:00;;;;;;;3.95;2.95;;;20.30;32.10;;;;;;5095518;28;20393;-63
2022/01/15 06:36:26;;;;;;;4.17;2.87;;;20.30;32.30;;;;;;5095939;28;20398;-63
2022/01/15 06:38:51;;;;;;;4.25;3.40;;;20.30;32.90;;;;;;5095721;28;20417;-72
2022/01/15 06:41:17;;;;;;;5.03;3.20;;;20.40;33.20;;;;;;5095710;28;20418;-64
2022/01/15 06:43:43;;;;;;;4.70;3.70;;;20.40;32.40;;;;;;5095734;28;20381;-63
2022/01/15 06:46:09;;;;;;;5.45;4.40;;;20.40;32.90;;;;;;5095106;28;20394;-73
2022/01/15 06:48:35;;;;;;;5.05;4.10;;;20.40;33.50;;;;;;5077228;28;20899;-66
2022/01/15 06:51:01;;;;;;;4.50;3.80;;;20.40;34.00;;;;;;5095511;28;20867;-73
2022/01/15 06:53:27;;;;;;;5.93;3.90;;;20.40;34.40;;;;;;5094671;28;20443;-73
2022/01/15 06:55:53;;;;;;;4.78;3.88;;;20.50;34.80;;;;;;5094253;28;20447;-65
2022/01/15 06:58:19;;;;;;;5.78;3.85;;;20.50;34.70;;;;;;5094205;28;20390;-63
2022/01/15 07:00:46;;;;;;;4.95;3.55;;;20.50;33.70;;;;;;5093956;28;20471;-62
2022/01/15 07:03:12;;;;;;;4.27;3.63;;;20.50;34.00;;;;;;5094311;28;20856;-65
2022/01/15 07:05:38;;;;;;;5.07;3.60;;;20.40;33.90;;;;;;5093874;28;20936;-63
2022/01/15 07:08:03;;;;;;;4.63;3.40;;;20.40;34.50;;;;;;5093880;28;20461;-65
2022/01/15 07:10:30;;;;;;;4.30;3.47;;;20.50;34.80;;;;;;5093992;28;20429;-62
2022/01/15 07:12:55;;;;;;;4.50;3.70;;;20.50;35.10;;;;;;5075570;28;20776;-63
2022/01/15 07:15:21;;;;;;;5.30;3.73;;;20.50;33.40;;;;;;5094531;28;20424;-63
2022/01/15 07:17:48;;;;;;;5.32;3.40;;;20.50;33.70;;;;;;5095018;28;20385;-64
2022/01/15 07:20:16;;;;;;;4.20;3.38;;;20.40;34.30;;;;;;5094844;28;20413;-64
2022/01/15 07:22:42;;;;;;;6.15;3.40;;;20.40;34.50;;;;;;5094887;28;20386;-64
2022/01/15 07:25:09;;;;;;;5.38;3.35;;;20.40;34.10;;;;;;5094634;28;20739;-64
2022/01/15 07:27:35;;;;;;;5.55;3.42;;;20.40;31.90;;;;;;5094280;28;20378;-67
2022/01/15 07:30:05;;;;;;;6.10;3.70;;;20.20;31.90;;;;;;5094635;28;20393;-64
2022/01/15 07:32:31;;;;;;;5.10;4.00;;;20.10;31.90;;;;;;5094800;28;20467;-66
2022/01/15 07:34:57;;;;;;;5.70;3.80;;;20.00;32.00;;;;;;5094023;28;20473;-74
2022/01/15 07:37:23;;;;;;;7.07;3.70;;;19.90;32.40;;;;;;5094079;28;20408;-64
2022/01/15 07:39:48;;;;;;;4.33;3.70;;;19.90;32.70;;;;;;5076436;28;20416;-64
2022/01/15 07:42:14;;;;;;;5.93;3.83;;;19.90;32.80;;;;;;5093864;28;20397;-62
2022/01/15 07:44:40;;;;;;;5.33;4.00;;;19.80;32.70;;;;;;5093456;28;20386;-63
2022/01/15 07:47:06;;;;;;;5.78;4.30;;;19.70;32.80;;;;;;5093363;28;20956;-67
2022/01/15 07:49:32;;;;;;;5.28;4.00;;;19.70;32.50;;;;;;5094482;28;20404;-64
2022/01/15 07:51:59;;;;;;;6.22;3.92;;;19.70;32.90;;;;;;5094391;28;20809;-71
2022/01/15 07:54:25;;;;;;;5.78;4.05;;;19.80;33.30;;;;;;5094236;28;20436;-65
2022/01/15 07:56:54;;;;;;;6.65;4.35;;;19.90;34.40;;;;;;5094126;28;20437;-63
2022/01/15 07:59:21;;;;;;;5.78;4.10;;;19.90;32.90;;;;;;5094012;28;20480;-63
2022/01/15 08:01:46;;;;;;;9.25;4.80;;;19.90;32.60;;;;;;5094194;28;20401;-64
2022/01/15 08:04:12;;;;;;;6.63;5.00;;;19.90;33.00;;;;;;5094159;28;20366;-64
2022/01/15 08:06:40;;;;;;;8.00;5.07;;;19.80;34.30;;;;;;5094080;28;20455;-64
2022/01/15 08:09:06;;;;;;;8.05;5.60;;;19.90;35.50;;;;;;5093917;28;20822;-65
2022/01/15 08:11:31;;;;;;;7.95;5.70;;;20.00;36.00;;;;;;5094017;28;20389;-74
2022/01/15 08:13:57;;;;;;;7.28;5.07;;;20.00;35.40;;;;;;5075563;28;20385;-63
2022/01/15 08:16:23;;;;;;;6.10;4.60;;;20.00;34.10;;;;;;5093918;28;20428;-63
2022/01/15 08:18:48;;;;;;;5.50;3.80;;;20.00;33.90;;;;;;5093826;28;20864;-63
2022/01/15 08:21:14;;;;;;;5.70;4.40;;;19.90;33.90;;;;;;5075635;28;21093;-64
2022/01/15 08:23:40;;;;;;;5.40;4.35;;;19.90;33.90;;;;;;5093731;28;20469;-62
2022/01/15 08:26:05;;;;;;;6.23;4.37;;;19.90;34.00;;;;;;5093369;28;20765;-63
2022/01/15 08:28:31;;;;;;;6.93;4.40;;;20.00;33.60;;;;;;5093692;28;20842;-62
2022/01/15 08:30:57;;;;;;;4.88;4.00;;;19.90;33.40;;;;;;5075147;28;20398;-69
2022/01/15 08:33:23;;;;;;;5.95;4.20;;;19.90;33.20;;;;;;5093560;28;20382;-63
2022/01/15 08:35:48;;;;;;;5.10;3.95;;;19.80;33.20;;;;;;5093523;28;20394;-62
2022/01/15 08:38:14;;;;;;;5.57;3.80;;;19.80;33.60;;;;;;5093467;28;20712;-65
2022/01/15 08:40:40;;;;;;;5.97;4.10;;;19.80;33.80;;;;;;5075158;28;20497;-63
2022/01/15 08:43:06;;;;;;;5.57;3.93;;;19.90;34.40;;;;;;5092768;28;20431;-62
2022/01/15 08:45:32;;;;;;;6.32;3.90;;;19.90;33.70;;;;;;5093106;28;20443;-62
2022/01/15 08:47:59;;;;;;;5.70;4.03;;;20.00;33.90;;;;;;5093172;28;20818;-66
2022/01/15 08:50:24;;;;;;;6.25;3.88;;;20.00;34.10;;;;;;5093153;28;20440;-64
2022/01/15 08:52:50;;;;;;;8.10;3.63;;;20.10;34.10;;;;;;5093284;28;20391;-66
2022/01/15 08:55:17;;;;;;;5.82;3.63;;;20.20;33.70;;;;;;5075337;28;20493;-65
2022/01/15 08:57:44;;;;;;;4.90;3.70;;;20.20;34.60;;;;;;5093119;28;20832;-66
2022/01/15 09:00:13;;;;;;;14.63;3.93;;;20.30;34.70;;;;;;5093869;28;20442;-72
2022/01/15 09:02:40;;;;;;;6.10;3.83;;;20.40;34.70;;;;;;5093370;28;20431;-63
2022/01/15 09:05:05;;;;;;;5.82;3.92;;;20.40;35.00;;;;;;5092858;28;20405;-63
2022/01/15 09:07:31;;;;;;;7.10;3.53;;;20.50;34.90;;;;;;5092861;28;20378;-69
2022/01/15 09:09:57;;;;;;;5.13;3.72;;;20.60;35.50;;;;;;5092823;28;20739;-70
2022/01/15 09:12:22;;;;;;;5.30;3.70;;;20.60;34.70;;;;;;5092616;28;20378;-66
2022/01/15 09:14:52;;;;;;;5.50;3.58;;;20.60;35.10;;;;;;5092537;28;20950;-62
2022/01/15 09:17:18;;;;;;;5.05;3.53;;;20.70;35.00;;;;;;5092708;28;20374;-63
2022/01/15 09:19:43;;;;;;;4.15;3.53;;;20.70;34.90;;;;;;5092387;28;20527;-66
2022/01/15 09:22:11;;;;;;;6.23;3.67;;;20.70;35.00;;;;;;5092646;28;20904;-63
2022/01/15 09:24:38;;;;;;;5.97;3.80;;;20.80;34.30;;;;;;5092463;28;20374;-63
2022/01/15 09:30:12;;;;;;;4.53;3.87;;;20.80;35.10;;;;;;5090561;28;20390;-62
2022/01/15 09:32:34;;;;;;;7.53;3.70;;;20.90;35.30;;;;;;5092222;28;20397;-65
2022/01/15 09:35:01;;;;;;;9.75;3.47;;;20.90;35.30;;;;;;5091733;28;20390;-66
2022/01/15 09:37:26;;;;;;;12.55;3.63;;;20.90;35.30;;;;;;5091304;28;20421;-62
2022/01/15 09:39:52;;;;;;;6.68;3.53;;;20.90;35.40;;;;;;5091479;28;20430;-62
2022/01/15 09:42:21;;;;;;;6.83;3.40;;;20.90;34.80;;;;;;5091750;28;20760;-62
2022/01/15 09:44:49;;;;;;;6.80;3.58;;;20.90;35.40;;;;;;5057847;28;20394;-67
2022/01/15 09:47:16;;;;;;;5.65;3.20;;;20.90;35.40;;;;;;5068183;28;20899;-62
2022/01/15 09:49:44;;;;;;;7.07;3.55;;;20.90;34.80;;;;;;5076506;28;20394;-62
2022/01/15 09:52:12;;;;;;;7.60;3.90;;;20.90;34.70;;;;;;5091589;28;20868;-64
2022/01/15 09:54:40;;;;;;;5.67;3.20;;;20.90;34.60;;;;;;5090886;28;20475;-63
2022/01/15 09:57:06;;;;;;;6.05;3.47;;;20.80;34.00;;;;;;5073334;28;20386;-63
2022/01/15 09:59:31;;;;;;;6.40;3.55;;;20.90;33.80;;;;;;5073427;28;20402;-62
2022/01/15 10:02:02;;;;;;;5.00;3.63;;;20.90;32.90;;;;;;5091421;28;20885;-64
2022/01/15 10:04:32;;;;;;;4.32;3.33;;;20.80;33.10;;;;;;5091585;28;20389;-62
2022/01/15 10:07:10;;;;;;;6.90;3.70;;;20.80;32.70;;;;;;5091613;28;20531;-62
2022/01/15 10:09:37;;;;;;;5.40;3.42;;;20.80;32.50;;;;;;5091359;28;20472;-62
2022/01/15 10:12:03;;;;;;;5.82;3.50;;;20.80;32.30;;;;;;5091127;28;20378;-63
2022/01/15 10:14:40;;;;;;;4.75;3.53;;;20.80;32.20;;;;;;5073091;28;20382;-62
2022/01/15 10:17:28;;;;;;;4.70;3.58;;;20.80;32.10;;;;;;5091210;28;20486;-62
2022/01/15 10:19:57;;;;;;;5.38;3.17;;;20.80;31.90;;;;;;5091106;28;20398;-62
2022/01/15 10:22:24;;;;;;;4.57;3.38;;;20.80;31.70;;;;;;5091453;28;20386;-62
2022/01/15 10:25:10;;;;;;;4.63;3.30;;;20.80;31.50;;;;;;5091277;28;20895;-62
2022/01/15 10:27:44;;;;;;;5.97;3.50;;;20.90;31.40;;;;;;5073094;28;20394;-63
2022/01/15 10:30:20;;;;;;;3.92;3.35;;;20.80;31.20;;;;;;5091209;28;20878;-62
2022/01/15 10:33:03;;;;;;;5.82;3.40;;;20.80;31.10;;;;;;5091256;28;20406;-63
2022/01/15 10:35:39;;;;;;;4.60;3.38;;;20.80;31.00;;;;;;5091030;28;20382;-62
2022/01/15 10:38:16;;;;;;;5.15;3.60;;;20.80;30.90;;;;;;5091137;28;20390;-62
2022/01/15 10:40:44;;;;;;;4.38;3.35;;;20.80;30.90;;;;;;5090643;28;20771;-63
2022/01/15 10:43:12;;;;;;;4.15;3.20;;;20.80;30.80;;;;;;5091059;28;20433;-62
2022/01/15 10:45:51;;;;;;;4.27;3.40;;;20.80;30.70;;;;;;5073031;28;20459;-62
2022/01/15 10:48:32;;;;;;;4.38;3.13;;;20.90;31.40;;;;;;5092030;28;20394;-65
2022/01/15 10:51:06;;;;;;;4.53;3.20;;;20.80;30.70;;;;;;5088575;28;20460;-62
2022/01/15 10:53:37;;;;;;;6.45;3.30;;;20.80;30.70;;;;;;5092127;28;20414;-63
2022/01/15 10:56:04;;;;;;;3.72;3.10;;;20.80;30.70;;;;;;5101706;28;20471;-66
2022/01/15 10:58:30;;;;;;;3.63;3.10;;;20.80;30.60;;;;;;5111206;28;20403;-63
2022/01/15 11:00:55;;;;;;;4.13;3.00;;;20.80;30.60;;;;;;5093912;28;20410;-64
2022/01/15 11:03:22;;;;;;;4.07;3.40;;;20.80;30.60;;;;;;5106490;28;20386;-62
2022/01/15 11:05:52;;;;;;;3.40;3.05;;;20.80;30.60;;;;;;5097801;28;20442;-66
2022/01/15 11:08:25;;;;;;;3.45;3.05;;;20.80;30.50;;;;;;5111466;28;20384;-62
2022/01/15 11:11:03;;;;;;;3.43;2.93;;;20.80;30.50;;;;;;5078059;28;20440;-62
2022/01/15 11:13:31;;;;;;;3.50;3.20;;;20.80;30.50;;;;;;5109732;28;20392;-65
2022/01/15 11:16:04;;;;;;;3.95;3.10;;;20.80;30.50;;;;;;5096605;28;20409;-63
2022/01/15 11:18:32;;;;;;;4.10;3.10;;;20.80;30.50;;;;;;5111939;28;20389;-63
2022/01/15 11:21:07;;;;;;;4.57;3.22;;;20.80;31.10;;;;;;5078945;28;20412;-62
2022/01/15 11:23:35;;;;;;;3.85;3.13;;;20.80;30.50;;;;;;5087372;28;21330;-62
2022/01/15 11:26:07;;;;;;;4.13;3.22;;;20.80;30.50;;;;;;5089479;28;20406;-62
2022/01/15 11:28:35;;;;;;;4.72;3.40;;;20.70;30.60;;;;;;5093653;28;20382;-63
2022/01/15 11:31:13;;;;;;;4.18;3.22;;;20.80;30.70;;;;;;5093778;28;20443;-62
2022/01/15 11:33:46;;;;;;;4.47;3.40;;;20.80;30.70;;;;;;5092325;28;20470;-62
2022/01/15 11:36:40;;;;;;;3.90;3.25;;;20.80;30.60;;;;;;5057802;28;20406;-62
2022/01/15 11:39:07;;;;;;;3.90;3.20;;;20.80;30.50;;;;;;5083380;28;20402;-62
2022/01/15 11:41:34;;;;;;;4.35;3.40;;;20.70;30.50;;;;;;5092215;28;20409;-62
2022/01/15 11:44:02;;;;;;;3.70;3.20;;;20.80;30.50;;;;;;5073887;28;20788;-62
2022/01/15 11:46:43;;;;;;;4.05;3.10;;;20.80;30.50;;;;;;5092411;28;20382;-63
2022/01/15 11:49:23;;;;;;;3.33;2.95;;;20.80;30.50;;;;;;5090597;28;20382;-62
2022/01/15 11:51:51;;;;;;;4.10;3.40;;;20.70;30.90;;;;;;5090448;28;20440;-62
2022/01/15 11:54:17;;;;;;;4.15;3.42;;;20.70;31.60;;;;;;5091460;28;20440;-62
2022/01/15 11:56:43;;;;;;;3.93;3.20;;;20.80;32.00;;;;;;5070846;28;20398;-62
2022/01/15 11:59:47;;;;;;;3.50;3.20;;;20.80;31.80;;;;;;5089769;28;20439;-62
2022/01/15 12:02:37;;;;;;;3.60;3.30;;;20.80;31.90;;;;;;5090375;28;20430;-62
2022/01/15 12:05:18;;;;;;;3.78;3.40;;;20.80;31.40;;;;;;5070768;28;20747;-62
2022/01/15 12:08:11;;;;;;;4.00;3.50;;;20.80;31.40;;;;;;5089574;28;20390;-62
2022/01/15 12:10:49;;;;;;;7.00;3.70;;;20.80;31.50;;;;;;5078077;28;20477;-62
2022/01/15 12:13:24;;;;;;;5.65;3.80;;;20.70;32.30;;;;;;5072733;28;20401;-62
2022/01/15 12:16:25;;;;;;;5.93;4.28;;;20.80;32.20;;;;;;5090241;28;20386;-62
2022/01/15 12:18:51;;;;;;;6.85;4.10;;;20.70;31.80;;;;;;5089978;28;20378;-62
2022/01/15 12:21:42;;;;;;;6.40;3.78;;;20.80;31.60;;;;;;5091785;28;20414;-62
2022/01/15 12:24:44;;;;;;;5.78;3.85;;;20.80;31.50;;;;;;5089679;28;20393;-62
2022/01/15 12:27:12;;;;;;;4.70;3.53;;;20.80;31.50;;;;;;5090179;28;20404;-62
2022/01/15 12:29:39;;;;;;;5.97;3.50;;;20.80;31.30;;;;;;5091733;28;20394;-62
2022/01/15 12:32:05;;;;;;;4.22;3.53;;;20.80;31.30;;;;;;5091404;28;20421;-62
2022/01/15 12:34:31;;;;;;;4.38;3.63;;;20.70;31.20;;;;;;5091488;28;20390;-62
2022/01/15 12:36:57;;;;;;;4.05;3.33;;;20.80;31.20;;;;;;5091079;28;20437;-62
2022/01/15 12:39:37;;;;;;;5.97;3.77;;;20.80;31.20;;;;;;5088677;28;20473;-62
2022/01/15 12:42:06;;;;;;;5.80;3.67;;;20.80;31.10;;;;;;5088419;28;20421;-62
2022/01/15 12:44:40;;;;;;;4.00;3.25;;;20.70;31.00;;;;;;5072944;28;20378;-62
2022/01/15 12:47:06;;;;;;;5.05;3.63;;;20.70;31.00;;;;;;5088489;28;20477;-62
2022/01/15 12:49:40;;;;;;;4.63;3.10;;;20.80;31.00;;;;;;5091136;28;20378;-63
2022/01/15 12:52:23;;;;;;;3.78;3.35;;;20.70;31.10;;;;;;5089193;28;20390;-62
2022/01/15 12:54:51;;;;;;;3.75;3.22;;;20.70;31.50;;;;;;5089299;28;20382;-61
2022/01/15 12:57:36;;;;;;;3.70;3.40;;;20.70;31.80;;;;;;5090509;28;20404;-61
2022/01/15 13:00:07;;;;;;;4.30;3.28;;;20.80;31.30;;;;;;5090308;28;20406;-62
2022/01/15 13:02:33;;;;;;;5.10;3.40;;;20.80;31.30;;;;;;5090612;28;20417;-61
2022/01/15 13:04:58;;;;;;;3.93;3.30;;;20.70;31.20;;;;;;5072247;28;20748;-63
2022/01/15 13:07:24;;;;;;;4.22;3.40;;;20.70;31.20;;;;;;5090824;28;20378;-61
2022/01/15 13:09:50;;;;;;;3.70;3.30;;;20.70;31.40;;;;;;5072531;28;20875;-62
2022/01/15 13:12:15;;;;;;;4.70;3.45;;;20.70;31.50;;;;;;5090464;28;20458;-61
2022/01/15 13:14:43;;;;;;;5.17;3.10;;;20.70;31.70;;;;;;5090989;28;20989;-61
2022/01/15 13:17:24;;;;;;;5.10;3.53;;;20.70;32.00;;;;;;5090301;28;20473;-61
2022/01/15 13:19:51;;;;;;;5.55;3.20;;;20.70;31.90;;;;;;5090227;28;20413;-60